Flight Track Log - Related Links

Times and Time Zones

All times are in EDT time to prevent confusion due to time zone crossing. See the SWA193 flight status page for this flight to view local times or setup timezone preferences in your user account.

Time Position Orientation Groundspeed Altitude Reporting Facility
EDT Latitude Longitude Course Direction KTS MPH feet Rate Location/Type
Wed 06:58:38 AM 26.0561 -80.1383 85° East 164 189 1,100  Level Miami Center
Wed 06:59:20 AM 26.0589 -80.1017 85° East 202 232 2,200 2,157 Climbing Miami Center
Wed 07:00:07 AM 26.0767 -80.0558 67° East 225 259 4,300 1,738 Climbing Miami Center
Wed 07:01:07 AM 26.1392 -80.0714 347° North 293 337 5,300 2,200 Climbing Miami Center
Wed 07:02:07 AM 26.1900 -80.1328 313° West 319 367 8,700 2,100 Climbing Miami Center
Wed 07:03:07 AM 26.2425 -80.2039 309° West 301 346 9,500 1,300 Climbing Miami Center
Wed 07:04:07 AM 26.2550 -80.3036 278° West 295 339 11,300 2,350 Climbing Miami Center
Wed 07:05:07 AM 26.2728 -80.4247 279° West 351 404 14,200 2,550 Climbing Miami Center
Wed 07:06:07 AM 26.2869 -80.5317 278° West 388 447 16,400 2,350 Climbing Miami Center
Wed 07:07:07 AM 26.3467 -80.6472 300° West 388 447 18,900 2,450 Climbing Miami Center
Wed 07:08:07 AM 26.4108 -80.7489 305° West 403 464 21,300 2,300 Climbing Miami Center
Wed 07:09:07 AM 26.4789 -80.8556 305° West 411 473 23,500 1,950 Climbing Miami Center
Wed 07:10:07 AM 26.5492 -80.9578 308° West 417 480 25,200 1,800 Climbing Miami Center
Wed 07:11:07 AM 26.6131 -81.0575 306° West 423 487 27,100 1,850 Climbing Miami Center
Wed 07:12:07 AM 26.6811 -81.1647 305° West 428 493 28,900 1,950 Climbing Miami Center
Wed 07:13:07 AM 26.7461 -81.2925 300° West 428 493 31,000 1,700 Climbing Miami Center
Wed 07:14:07 AM 26.7842 -81.4125 290° West 423 487 32,300 1,400 Climbing Miami Center
Wed 07:15:07 AM 26.8200 -81.5350 288° West 418 481 33,800 1,650 Climbing Miami Center
Wed 07:16:07 AM 26.8556 -81.6597 288° West 413 475 35,600 1,100 Climbing Miami Center
Wed 07:17:07 AM 26.8933 -81.7731 291° West 407 468 36,000 -300 Climbing Miami Center
Wed 07:18:07 AM 26.9250 -81.8861 287° West 402 463 35,000 -950 Descending Miami Center
Wed 07:19:07 AM 26.9628 -82.0019 290° West 396 456 34,100 -500 Descending Miami Center
Wed 07:20:07 AM 26.9961 -82.1200 288° West 396 456 34,000 -50 Descending Miami Center
Wed 07:21:07 AM 27.0256 -82.2261 287° West 391 450 34,000  Level Miami Center
Wed 07:22:07 AM 27.0628 -82.3467 289° West 405 466 34,000  Level Miami Center
Wed 07:23:07 AM 27.0978 -82.4650 288° West 405 466 34,000  Level Miami Center
Wed 07:24:07 AM 27.1344 -82.5950 288° West 410 472 34,000  Level Miami Center
Wed 07:25:07 AM 27.1694 -82.7156 288° West 410 472 34,000  Level Miami Center
Wed 07:26:07 AM 27.2042 -82.8317 289° West 410 472 34,000  Level Miami Center
Wed 07:27:07 AM 27.2389 -82.9503 288° West 410 472 34,000  Level Miami Center
Wed 07:28:07 AM 27.2700 -83.0569 288° West 410 472 34,000  Level Miami Center
Wed 07:29:07 AM 27.3044 -83.1756 288° West 404 465 34,000  Level Miami Center
Wed 07:30:07 AM 27.3347 -83.2917 286° West 404 465 34,000  Level Miami Center
Wed 07:31:07 AM 27.3711 -83.4083 289° West 404 465 34,000  Level Miami Center
Wed 07:32:07 AM 27.4036 -83.5222 288° West 398 458 34,000  Level Miami Center
Wed 07:33:07 AM 27.4336 -83.6383 286° West 392 451 34,000  Level Miami Center
Wed 07:34:07 AM 27.4658 -83.7525 288° West 387 445 34,000  Level Miami Center
Wed 07:35:07 AM 27.5019 -83.8669 290° West 387 445 34,000  Level Miami Center
Wed 07:36:07 AM 27.5317 -83.9811 286° West 387 445 34,000  Level Miami Center
Wed 07:37:07 AM 27.5636 -84.0978 287° West 387 445 34,000  Level Miami Center
Wed 07:38:07 AM 27.5953 -84.2119 287° West 387 445 34,000  Level Miami Center
Wed 07:39:39 AM 27.6425 -84.3917 287° West 376 433 34,000 -197 Level Jacksonville Center
Wed 07:40:39 AM 27.6808 -84.5047 291° West 382 440 33,500 -1,700 Descending Jacksonville Center
Wed 07:41:39 AM 27.7064 -84.6269 283° West 389 448 30,600 -1,750 Descending Jacksonville Center
Wed 07:42:39 AM 27.7503 -84.7614 290° West 421 484 30,000 -298 Descending Jacksonville Center
Wed 07:43:40 AM 27.7839 -84.8956 286° West 443 510 30,000  Level Jacksonville Center
Wed 07:44:39 AM 27.8194 -85.0231 288° West 437 503 30,000  Level Jacksonville Center
Wed 07:45:39 AM 27.8569 -85.1481 289° West 437 503 30,000  Level Jacksonville Center
Wed 07:46:39 AM 27.8900 -85.2828 286° West 443 510 30,000  Level Jacksonville Center
Wed 07:47:39 AM 27.9311 -85.4128 290° West 443 510 30,000  Level Jacksonville Center
Wed 07:48:39 AM 27.9703 -85.5453 289° West 443 510 30,000  Level Jacksonville Center
Wed 07:49:39 AM 28.0094 -85.6733 289° West 443 510 30,000  Level Jacksonville Center
Wed 07:50:39 AM 28.0483 -85.7992 289° West 438 504 30,000  Level Jacksonville Center
Wed 07:51:39 AM 28.0869 -85.9319 288° West 445 512 30,000  Level Jacksonville Center
Wed 07:52:39 AM 28.1275 -86.0650 289° West 445 512 30,000  Level Jacksonville Center
Wed 07:53:39 AM 28.1658 -86.1956 288° West 445 512 30,000  Level Jacksonville Center
Wed 07:54:39 AM 28.2064 -86.3286 289° West 445 512 30,000  Level Jacksonville Center
Wed 07:55:39 AM 28.2425 -86.4547 288° West 435 501 30,000  Level Jacksonville Center
Wed 07:56:39 AM 28.2825 -86.5906 289° West 444 511 30,000  Level Jacksonville Center
Wed 07:57:39 AM 28.3225 -86.7217 289° West 449 517 30,000  Level Jacksonville Center
Wed 07:58:39 AM 28.3622 -86.8575 288° West 442 509 30,000  Level Jacksonville Center
Wed 07:59:39 AM 28.3997 -86.9889 288° West 440 506 30,000  Level Jacksonville Center
Wed 08:00:39 AM 28.4411 -87.1250 289° West 450 518 30,000  Level Jacksonville Center
Wed 08:01:39 AM 28.4744 -87.2517 287° West 442 509 30,000  Level Jacksonville Center
Wed 08:04:04 AM 28.5661 -87.5669 288° West 440 506 30,000  Level Houston Center
Wed 08:05:05 AM 28.6011 -87.6958 287° West 441 507 30,000  Level Houston Center
Wed 08:06:06 AM 28.6381 -87.8306 287° West 446 513 30,000  Level Houston Center
Wed 08:07:08 AM 28.6758 -87.9644 288° West 445 512 30,000  Level Houston Center
Wed 08:08:09 AM 28.7181 -88.1125 288° West 442 509 30,000  Level Houston Center
Wed 08:09:11 AM 28.7672 -88.2411 294° West 446 513 30,000  Level Houston Center
Wed 08:10:12 AM 28.8389 -88.3561 305° West 448 516 30,000  Level Houston Center
Wed 08:11:13 AM 28.9083 -88.4739 304° West 447 514 30,000  Level Houston Center
Wed 08:12:15 AM 28.9808 -88.5889 306° West 447 514 30,000  Level Houston Center
Wed 08:13:16 AM 29.0653 -88.7278 305° West 445 512 30,000  Level Houston Center
Wed 08:14:18 AM 29.1358 -88.8461 304° West 447 514 30,000  Level Houston Center
Wed 08:15:19 AM 29.2061 -88.9628 305° West 446 513 30,000  Level Houston Center
Wed 08:16:20 AM 29.2769 -89.0781 305° West 444 511 30,000  Level Houston Center
Wed 08:17:22 AM 29.3461 -89.1953 304° West 445 512 30,000  Level Houston Center
Wed 08:18:23 AM 29.4183 -89.3119 305° West 446 513 30,000  Level Houston Center
Wed 08:19:25 AM 29.4883 -89.4311 304° West 449 517 30,000  Level Houston Center
Wed 08:20:26 AM 29.5589 -89.5497 304° West 449 517 30,000  Level Houston Center
Wed 08:21:28 AM 29.6297 -89.6658 305° West 443 510 30,000  Level Houston Center
Wed 08:22:29 AM 29.7142 -89.8092 304° West 450 518 30,000  Level Houston Center
Wed 08:23:31 AM 29.7844 -89.9292 304° West 451 519 30,000  Level Houston Center
Wed 08:24:32 AM 29.8556 -90.0486 304° West 450 518 30,000  Level Houston Center
Wed 08:25:34 AM 29.9261 -90.1689 304° West 451 519 30,000  Level Houston Center
Wed 08:26:36 AM 29.9958 -90.2892 304° West 451 519 30,000  Level Houston Center
Wed 08:27:37 AM 30.0667 -90.4111 304° West 450 518 30,000  Level Houston Center
Wed 08:28:39 AM 30.1375 -90.5297 305° West 453 521 30,000  Level Houston Center
Wed 08:29:40 AM 30.2069 -90.6494 304° West 450 518 30,000  Level Houston Center
Wed 08:30:42 AM 30.2756 -90.7675 304° West 444 511 30,000  Level Houston Center
Wed 08:31:44 AM 30.3567 -90.9089 304° West 441 507 30,000  Level Houston Center
Wed 08:32:45 AM 30.4250 -91.0272 304° West 441 507 30,000  Level Houston Center
Wed 08:33:47 AM 30.4942 -91.1450 304° West 441 507 30,000  Level Houston Center
Wed 08:34:48 AM 30.5617 -91.2642 303° West 443 510 30,000  Level Houston Center
Wed 08:35:50 AM 30.6297 -91.3850 303° West 446 513 30,000  Level Houston Center
Wed 08:36:52 AM 30.6950 -91.5006 303° West 433 498 30,000  Level Houston Center
Wed 08:37:53 AM 30.7622 -91.6208 303° West 441 507 30,000  Level Houston Center
Wed 08:38:55 AM 30.8436 -91.7636 304° West 442 509 30,000  Level Houston Center
Wed 08:39:57 AM 30.9108 -91.8819 304° West 439 505 30,000  Level Houston Center
Wed 08:40:58 AM 30.9764 -91.9997 303° West 434 499 30,000  Level Houston Center
Wed 08:42:00 AM 31.0425 -92.1189 303° West 434 499 30,000  Level Houston Center
Wed 08:43:02 AM 31.1089 -92.2383 303° West 438 504 30,000  Level Houston Center
Wed 08:44:03 AM 31.1767 -92.3586 303° West 441 507 30,000  Level Houston Center
Wed 08:45:05 AM 31.2442 -92.4792 303° West 443 510 30,000  Level Houston Center
Wed 08:46:07 AM 31.2683 -92.6144 282° West 439 505 30,000 439 Level Houston Center
Wed 08:47:08 AM 31.2850 -92.7767 277° West 427 491 30,900 1,366 Climbing Houston Center
Wed 08:48:10 AM 31.2983 -92.9081 277° West 416 479 32,800 1,935 Climbing Houston Center
Wed 08:49:12 AM 31.3106 -93.0367 276° West 405 466 34,900 2,274 Climbing Houston Center
Wed 08:50:14 AM 31.3236 -93.1567 277° West 384 442 37,500 1,512 Climbing Houston Center
Wed 08:51:15 AM 31.3353 -93.2803 276° West 356 410 38,000 244 Climbing Houston Center
Wed 08:52:17 AM 31.3469 -93.3972 277° West 362 417 38,000  Level Houston Center
Wed 08:53:19 AM 31.3578 -93.5175 276° West 371 427 38,000  Level Houston Center
Wed 08:54:21 AM 31.3714 -93.6508 277° West 369 425 38,000  Level Houston Center
Wed 08:55:22 AM 31.3836 -93.7708 277° West 371 427 38,000  Level Houston Center
Wed 08:56:24 AM 31.3939 -93.8908 276° West 370 426 38,000  Level Houston Center
Wed 08:56:43 AM 31.3994 -93.9381 278° West 368 423 38,000  Level Fort Worth Center
Wed 08:57:43 AM 31.4108 -94.0569 276° West 368 423 38,000  Level Fort Worth Center
Wed 08:58:43 AM 31.4203 -94.1806 275° West 368 423 38,000  Level Fort Worth Center
Wed 08:59:43 AM 31.4339 -94.2969 278° West 368 423 38,000  Level Fort Worth Center
Wed 09:00:43 AM 31.4431 -94.4183 275° West 368 423 38,000  Level Fort Worth Center
Wed 09:01:43 AM 31.4539 -94.5350 276° West 368 423 38,000  Level Fort Worth Center
Wed 09:02:35 AM 31.4617 -94.6269 276° West 365 420 38,000  Level Houston Center
Wed 09:03:37 AM 31.4722 -94.7433 276° West 364 419 38,000  Level Houston Center
Wed 09:04:43 AM 31.4844 -94.8897 276° West 368 423 38,000  Level Fort Worth Center
Wed 09:05:43 AM 31.4931 -95.0039 275° West 368 423 38,000  Level Fort Worth Center
Wed 09:06:43 AM 31.5017 -95.1231 275° West 368 423 38,000  Level Fort Worth Center
Wed 09:07:43 AM 31.5119 -95.2397 276° West 368 423 38,000  Level Fort Worth Center
Wed 09:08:43 AM 31.5242 -95.3517 277° West 362 417 38,000  Level Fort Worth Center
Wed 09:09:43 AM 31.5325 -95.4683 275° West 362 417 38,000  Level Fort Worth Center
Wed 09:10:43 AM 31.5381 -95.5731 274° West 362 417 38,000  Level Fort Worth Center
Wed 09:11:43 AM 31.5503 -95.6897 277° West 370 426 38,000  Level Fort Worth Center
Wed 09:12:43 AM 31.5581 -95.8092 274° West 370 426 38,000  Level Fort Worth Center
Wed 09:13:43 AM 31.5678 -95.9236 276° West 365 420 38,000  Level Fort Worth Center
Wed 09:14:43 AM 31.5775 -96.0428 276° West 365 420 38,000  Level Fort Worth Center
Wed 09:15:43 AM 31.5869 -96.1597 275° West 365 420 38,000  Level Fort Worth Center
Wed 09:16:43 AM 31.5967 -96.2817 275° West 370 426 38,000  Level Fort Worth Center
Wed 09:17:43 AM 31.6039 -96.4083 274° West 365 420 38,000  Level Fort Worth Center
Wed 09:18:43 AM 31.6131 -96.5278 275° West 365 420 38,000  Level Fort Worth Center
Wed 09:19:43 AM 31.6411 -96.6350 287° West 363 418 38,000  Level Fort Worth Center
Wed 09:20:43 AM 31.6833 -96.7492 294° West 368 423 38,000  Level Fort Worth Center
Wed 09:21:43 AM 31.7278 -96.8564 296° West 368 423 38,000  Level Fort Worth Center
Wed 09:22:43 AM 31.7700 -96.9661 294° West 374 430 38,000  Level Fort Worth Center
Wed 09:23:43 AM 31.8119 -97.0761 294° West 374 430 38,000  Level Fort Worth Center
Wed 09:24:43 AM 31.8542 -97.1883 294° West 373 429 38,000  Level Fort Worth Center
Wed 09:25:43 AM 31.8981 -97.3008 295° West 373 429 38,000  Level Fort Worth Center
Wed 09:26:43 AM 31.9397 -97.4108 294° West 378 435 38,000  Level Fort Worth Center
Wed 09:27:43 AM 31.9731 -97.5114 291° West 378 435 38,000  Level Fort Worth Center
Wed 09:28:43 AM 32.0211 -97.6389 294° West 373 429 38,000  Level Fort Worth Center
Wed 09:29:43 AM 32.0647 -97.7542 294° West 378 435 38,000  Level Fort Worth Center
Wed 09:30:43 AM 32.1206 -97.8575 303° West 378 435 38,000  Level Fort Worth Center
Wed 09:31:43 AM 32.1828 -97.9633 305° West 388 447 38,000  Level Fort Worth Center
Wed 09:32:43 AM 32.2658 -98.0547 317° Northwest 395 455 38,000  Level Fort Worth Center
Wed 09:33:43 AM 32.3406 -98.1486 313° West 400 460 38,000  Level Fort Worth Center
Wed 09:34:43 AM 32.3628 -98.2644 283° West 368 423 38,000  Level Fort Worth Center
Wed 09:35:43 AM 32.3828 -98.3828 281° West 368 423 38,000  Level Fort Worth Center
Wed 09:36:43 AM 32.3925 -98.4861 276° West 362 417 38,000  Level Fort Worth Center
Wed 09:37:43 AM 32.4019 -98.5969 276° West 356 410 38,000  Level Fort Worth Center
Wed 09:38:43 AM 32.4319 -98.7131 287° West 356 410 38,000  Level Fort Worth Center
Wed 09:39:43 AM 32.4683 -98.8367 289° West 361 415 38,000  Level Fort Worth Center
Wed 09:40:43 AM 32.5128 -98.9556 294° West 374 430 38,000  Level Fort Worth Center
Wed 09:41:43 AM 32.5472 -99.0500 293° West 379 436 38,000  Level Fort Worth Center
Wed 09:42:43 AM 32.5914 -99.1764 293° West 379 436 38,000  Level Fort Worth Center
Wed 09:43:43 AM 32.6356 -99.2933 294° West 384 442 38,000  Level Fort Worth Center
Wed 09:44:43 AM 32.6775 -99.4150 292° West 384 442 38,000  Level Fort Worth Center
Wed 09:45:43 AM 32.7214 -99.5297 294° West 384 442 38,000  Level Fort Worth Center
Wed 09:46:43 AM 32.7672 -99.6617 292° West 389 448 38,000  Level Fort Worth Center
Wed 09:47:43 AM 32.8153 -99.7789 296° West 389 448 38,000  Level Fort Worth Center
Wed 09:48:43 AM 32.8483 -99.9036 288° West 395 455 38,000  Level Fort Worth Center
Wed 09:49:43 AM 32.8769 -100.0281 285° West 395 455 38,000  Level Fort Worth Center
Wed 09:50:43 AM 32.9078 -100.1478 287° West 390 449 38,000  Level Fort Worth Center
Wed 09:51:43 AM 32.9406 -100.2675 288° West 384 442 38,000  Level Fort Worth Center
Wed 09:52:43 AM 32.9711 -100.3897 287° West 384 442 38,000  Level Fort Worth Center
Wed 09:53:43 AM 33.0017 -100.5072 287° West 384 442 38,000  Level Fort Worth Center
Wed 09:54:43 AM 33.0342 -100.6297 288° West 384 442 38,000  Level Fort Worth Center
Wed 09:55:43 AM 33.0644 -100.7497 287° West 384 442 38,000  Level Fort Worth Center
Wed 09:56:43 AM 33.0947 -100.8700 287° West 384 442 38,000  Level Fort Worth Center
Wed 09:57:43 AM 33.1267 -100.9903 288° West 384 442 38,000  Level Fort Worth Center
Wed 09:58:43 AM 33.1569 -101.0981 289° West 384 442 38,000  Level Fort Worth Center
Wed 09:59:43 AM 33.1883 -101.2311 286° West 384 442 38,000  Level Fort Worth Center
Wed 10:00:43 AM 33.2225 -101.3467 289° West 389 448 38,000  Level Fort Worth Center
Wed 10:01:43 AM 33.2533 -101.4872 285° West 401 461 38,000  Level Fort Worth Center
Wed 10:02:43 AM 33.2831 -101.6053 287° West 408 470 38,000  Level Fort Worth Center
Wed 10:03:43 AM 33.3178 -101.7486 286° West 403 464 38,000  Level Fort Worth Center
Wed 10:04:43 AM 33.3506 -101.8819 286° West 408 470 38,000  Level Fort Worth Center
Wed 10:05:43 AM 33.3833 -102.0131 287° West 408 470 38,000  Level Fort Worth Center
Wed 10:06:43 AM 33.4161 -102.1467 286° West 413 475 38,000  Level Fort Worth Center
Wed 10:07:43 AM 33.4447 -102.2675 286° West 418 481 38,000  Level Fort Worth Center
Wed 10:08:43 AM 33.4808 -102.4142 286° West 418 481 38,000  Level Fort Worth Center
Wed 10:09:43 AM 33.5094 -102.5278 287° West 418 481 38,000  Level Fort Worth Center
Wed 10:10:43 AM 33.5450 -102.6769 286° West 426 490 38,000  Level Fort Worth Center
Wed 10:11:43 AM 33.5753 -102.8008 286° West 426 490 38,000  Level Fort Worth Center
Wed 10:13:09 AM 33.6222 -102.9894 287° West 427 491 38,000  Level Albuquerque Center
Wed 10:14:11 AM 33.6542 -103.1244 286° West 425 489 38,000  Level Albuquerque Center
Wed 10:15:12 AM 33.6856 -103.2594 286° West 423 487 38,000  Level Albuquerque Center
Wed 10:16:14 AM 33.7239 -103.4203 286° West 420 483 38,000  Level Albuquerque Center
Wed 10:17:15 AM 33.7547 -103.5575 285° West 423 487 38,000  Level Albuquerque Center
Wed 10:18:17 AM 33.7875 -103.6997 286° West 423 487 38,000  Level Albuquerque Center
Wed 10:19:19 AM 33.8211 -103.8447 286° West 421 484 38,000  Level Albuquerque Center
Wed 10:20:20 AM 33.8519 -103.9797 285° West 420 483 38,000  Level Albuquerque Center
Wed 10:21:22 AM 33.8833 -104.1158 286° West 423 487 38,000  Level Albuquerque Center
Wed 10:22:23 AM 33.9156 -104.2631 285° West 423 487 38,000  Level Albuquerque Center
Wed 10:23:25 AM 33.9472 -104.3983 286° West 422 486 38,000  Level Albuquerque Center
Wed 10:24:27 AM 33.9775 -104.5339 285° West 421 484 38,000  Level Albuquerque Center
Wed 10:25:28 AM 34.0097 -104.6800 285° West 421 484 38,000  Level Albuquerque Center
Wed 10:26:30 AM 34.0403 -104.8103 286° West 423 487 38,000  Level Albuquerque Center
Wed 10:27:32 AM 34.0719 -104.9506 285° West 427 491 38,000  Level Albuquerque Center
Wed 10:28:33 AM 34.1019 -105.0939 284° West 434 499 38,000  Level Albuquerque Center
Wed 10:29:35 AM 34.1336 -105.2331 285° West 428 493 38,000  Level Albuquerque Center
Wed 10:30:37 AM 34.1622 -105.3706 284° West 422 486 38,000  Level Albuquerque Center
Wed 10:31:39 AM 34.1950 -105.5303 284° West 419 482 38,000  Level Albuquerque Center
Wed 10:32:40 AM 34.2231 -105.6664 284° West 416 479 38,000  Level Albuquerque Center
Wed 10:33:42 AM 34.2533 -105.8042 285° West 417 480 38,000  Level Albuquerque Center
Wed 10:34:44 AM 34.2811 -105.9386 284° West 413 475 38,000  Level Albuquerque Center
Wed 10:35:45 AM 34.3133 -106.0775 286° West 418 481 38,000  Level Albuquerque Center
Wed 10:36:47 AM 34.3419 -106.2142 284° West 418 481 38,000 242 Level Albuquerque Center
Wed 10:37:49 AM 34.3697 -106.3636 283° West 424 488 38,500 532 Climbing Albuquerque Center
Wed 10:38:51 AM 34.4000 -106.5042 285° West 428 493 39,100 732 Climbing Albuquerque Center
Wed 10:39:52 AM 34.4306 -106.6469 285° West 432 497 40,000 439 Climbing Albuquerque Center
Wed 10:40:54 AM 34.4589 -106.7889 284° West 434 499 40,000  Level Albuquerque Center
Wed 10:41:56 AM 34.4875 -106.9342 283° West 439 505 40,000  Level Albuquerque Center
Wed 10:42:58 AM 34.5167 -107.0778 284° West 439 505 40,000  Level Albuquerque Center
Wed 10:44:00 AM 34.5450 -107.2219 283° West 436 502 40,000  Level Albuquerque Center
Wed 10:45:02 AM 34.5731 -107.3636 284° West 434 499 40,000  Level Albuquerque Center
Wed 10:46:04 AM 34.6072 -107.5358 284° West 435 501 40,000  Level Albuquerque Center
Wed 10:47:06 AM 34.6358 -107.6789 284° West 434 499 40,000  Level Albuquerque Center
Wed 10:48:07 AM 34.6633 -107.8219 283° West 434 499 40,000  Level Albuquerque Center
Wed 10:49:09 AM 34.6908 -107.9656 283° West 436 502 40,000  Level Albuquerque Center
Wed 10:50:11 AM 34.7194 -108.1097 284° West 437 503 40,000  Level Albuquerque Center
Wed 10:51:13 AM 34.7467 -108.2522 283° West 435 501 40,000  Level Albuquerque Center
Wed 10:52:15 AM 34.7744 -108.3981 283° West 439 505 40,000  Level Albuquerque Center
Wed 10:53:17 AM 34.8064 -108.5672 283° West 436 502 40,000  Level Albuquerque Center
Wed 10:54:19 AM 34.8322 -108.7061 283° West 438 504 40,000  Level Albuquerque Center
Wed 10:55:20 AM 34.8617 -108.8664 283° West 435 501 40,000  Level Albuquerque Center
Wed 10:56:22 AM 34.8875 -109.0053 283° West 436 502 40,000  Level Albuquerque Center
Wed 10:57:24 AM 34.9175 -109.1661 283° West 436 502 40,000  Level Albuquerque Center
Wed 10:58:26 AM 34.9419 -109.3028 282° West 432 497 40,000  Level Albuquerque Center
Wed 10:59:28 AM 34.9667 -109.4392 283° West 431 496 40,000  Level Albuquerque Center
Wed 11:00:30 AM 34.9947 -109.5983 282° West 429 494 40,000  Level Albuquerque Center
Wed 11:01:32 AM 35.0189 -109.7378 282° West 433 498 40,000  Level Albuquerque Center
Wed 11:02:34 AM 35.0483 -109.9014 282° West 439 505 40,000  Level Albuquerque Center
Wed 11:03:35 AM 35.0731 -110.0417 282° West 439 505 40,000  Level Albuquerque Center
Wed 11:04:37 AM 35.1014 -110.2061 282° West 443 510 40,000  Level Albuquerque Center
Wed 11:05:39 AM 35.1242 -110.3447 281° West 439 505 40,000  Level Albuquerque Center
Wed 11:06:41 AM 35.1456 -110.4822 281° West 433 498 40,000 -290 Level Albuquerque Center
Wed 11:07:43 AM 35.1731 -110.6442 282° West 433 498 39,400 -774 Descending Albuquerque Center
Wed 11:08:45 AM 35.1953 -110.7797 281° West 430 495 38,400 -968 Descending Albuquerque Center
Wed 11:09:47 AM 35.2211 -110.9397 281° West 430 495 37,400 -919 Descending Albuquerque Center
Wed 11:10:49 AM 35.2431 -111.0797 281° West 434 499 36,500 -878 Descending Albuquerque Center
Wed 11:11:50 AM 35.2664 -111.2181 282° West 440 506 35,600 -1,268 Descending Albuquerque Center
Wed 11:12:52 AM 35.2972 -111.3981 282° West 448 516 33,900 -1,935 Descending Albuquerque Center
Wed 11:13:54 AM 35.3206 -111.5433 281° West 439 505 31,600 -1,887 Descending Albuquerque Center
Wed 11:14:56 AM 35.3425 -111.6831 281° West 426 490 30,000 -774 Descending Albuquerque Center
Wed 11:15:58 AM 35.3644 -111.8161 281° West 411 473 30,000  Level Albuquerque Center
Wed 11:17:00 AM 35.3856 -111.9522 281° West 408 470 30,000  Level Albuquerque Center
Wed 11:18:02 AM 35.4078 -112.0969 281° West 426 490 30,000  Level Albuquerque Center
Wed 11:18:18 AM 35.4172 -112.1558 281° West 434 499 30,000  Level Los Angeles Center
Wed 11:19:04 AM 35.4347 -112.2706 281° West 434 499 30,000  Level Albuquerque Center
Wed 11:20:06 AM 35.4575 -112.4142 281° West 433 498 30,000  Level Albuquerque Center
Wed 11:20:22 AM 35.4619 -112.4433 281° West 432 497 30,000  Level Los Angeles Center
Wed 11:21:24 AM 35.4842 -112.5861 281° West 432 497 30,000 -339 Level Los Angeles Center
Wed 11:22:26 AM 35.5094 -112.7539 281° West 420 483 29,300 -823 Descending Los Angeles Center
Wed 11:23:28 AM 35.5306 -112.9022 280° West 435 501 28,300 -919 Descending Los Angeles Center
Wed 11:24:30 AM 35.5503 -113.0347 280° West 426 490 27,400 -1,016 Descending Los Angeles Center
Wed 11:25:32 AM 35.5750 -113.2003 280° West 412 474 26,200 -1,065 Descending Los Angeles Center
Wed 11:26:34 AM 35.5950 -113.3372 280° West 414 476 25,200 -968 Descending Los Angeles Center
Wed 11:27:36 AM 35.6150 -113.4756 280° West 415 478 24,200 -968 Descending Los Angeles Center
Wed 11:28:38 AM 35.6344 -113.6142 280° West 407 468 23,200 -1,113 Descending Los Angeles Center
Wed 11:29:40 AM 35.6528 -113.7419 280° West 396 456 21,900 -1,694 Descending Los Angeles Center
Wed 11:30:42 AM 35.6703 -113.8708 280° West 387 445 19,700 -2,226 Descending Los Angeles Center
Wed 11:31:44 AM 35.6917 -114.0175 280° West 368 423 17,300 -2,274 Descending Los Angeles Center
Wed 11:32:46 AM 35.7106 -114.1436 280° West 375 432 15,000 -2,302 Descending Los Angeles Center
Wed 11:33:10 AM 35.7194 -114.1953 282° West 384 442 14,000 -2,226 Descending Los Angeles Center
Wed 11:33:48 AM 35.7269 -114.2742 277° West 371 427 12,700 -1,612 Descending Los Angeles Center
Wed 11:34:17 AM 35.7361 -114.3358 280° West 363 418 12,200 -581 Descending Los Angeles Center
Wed 11:34:50 AM 35.7486 -114.3839 288° West 333 383 12,100 -222 Descending Los Angeles Center
Wed 11:35:11 AM 35.7831 -114.3994 340° North 288 331 12,000 -97 Descending Los Angeles Center
Wed 11:35:52 AM 35.8142 -114.4289 322° Northwest 274 315 12,000  Level Los Angeles Center
Wed 11:36:12 AM 35.8228 -114.4711 284° West 290 334 12,000  Level Los Angeles Center
Wed 11:36:54 AM 35.8075 -114.5281 252° West 298 343 12,000  Level Los Angeles Center
Wed 11:37:13 AM 35.7939 -114.5739 250° West 318 366 12,000  Level Los Angeles Center
Wed 11:37:56 AM 35.7714 -114.6303 244° Southwest 319 367 12,000  Level Los Angeles Center
Wed 11:38:20 AM 35.7533 -114.6831 247° West 322 371 12,000  Level Los Angeles Center
Wed 11:38:58 AM 35.7275 -114.7519 245° Southwest 324 373 12,000 -295 Level Los Angeles Center
Wed 11:39:21 AM 35.7147 -114.7914 248° West 320 368 11,700 -968 Descending Los Angeles Center
Wed 11:40:00 AM 35.7100 -114.8553 265° West 309 356 11,000 -1,082 Descending Los Angeles Center
Wed 11:40:22 AM 35.7072 -114.8944 265° West 299 344 10,600 -968 Descending Los Angeles Center
Wed 11:41:02 AM 35.7044 -114.9547 267° West 298 343 10,000 -537 Descending Los Angeles Center
Wed 11:41:29 AM 35.7008 -115.0028 265° West 294 338 10,000 -774 Level Los Angeles Center
Wed 11:42:04 AM 35.7014 -115.0542 271° West 293 337 9,200 -1,091 Descending Los Angeles Center
Wed 11:42:24 AM 35.7050 -115.0914 277° West 284 327 9,000 -677 Descending Los Angeles Center
Wed 11:43:06 AM 35.7081 -115.1478 274° West 287 330 8,500 -577 Descending Los Angeles Center
Wed 11:44:08 AM 35.7172 -115.2336 278° West 273 314 8,000 -194 Descending Los Angeles Center
Wed 11:45:10 AM 35.7536 -115.2889 309° West 245 282 8,100 -339 Climbing Los Angeles Center
Wed 11:46:12 AM 35.8197 -115.3144 343° North 225 259 7,300 -701 Descending Los Angeles Center
Wed 11:46:27 AM 35.8344 -115.3086 18° North 229 264 7,200 -290 Descending Los Angeles Center
Wed 11:47:14 AM 35.8761 -115.2833 26° Northeast 224 258 7,000 -826 Descending Los Angeles Center
Wed 11:48:16 AM 35.9292 -115.2533 25° Northeast 219 252 5,700 -919 Descending Los Angeles Center
Wed 11:49:18 AM 35.9842 -115.2214 25° Northeast 212 244 5,100 -1,082 Descending Los Angeles Center
Wed 11:50:18 AM 36.0208 -115.2022 23° Northeast 171 197 3,500 -1,179 Descending Los Angeles Center
Wed 11:51:10 AM 36.0483 -115.1839 28° Northeast 144 166 2,900 -806 Descending Los Angeles Center
Wed 11:51:25 AM 36.0631 -115.1778 19° North 149 171 2,600 -774 Descending Los Angeles Center
Wed 11:52:12 AM 36.0894 -115.1614 27° Northeast 134 154 2,100 -275 Descending Los Angeles Center
Wed 11:53:14 AM 36.1181 -115.1447 25° Northeast 125 144 2,100  Level Los Angeles Center

Login

Don't have an account? Register now (free) for customized features, flight alerts, and more!